sensor_id;sensor_type;location;lat;lon;timestamp;P1;durP1;ratioP1;P2;durP2;ratioP2
75218;SDS011;63801;49.414;19.474;2023-07-20T00:01:32;17.25;;;8.88;;
75218;SDS011;63801;49.414;19.474;2023-07-20T00:03:33;14.70;;;8.00;;
75218;SDS011;63801;49.414;19.474;2023-07-20T00:05:33;13.82;;;8.43;;
75218;SDS011;63801;49.414;19.474;2023-07-20T00:07:33;15.85;;;8.05;;
75218;SDS011;63801;49.414;19.474;2023-07-20T00:09:34;17.08;;;8.57;;
75218;SDS011;63801;49.414;19.474;2023-07-20T00:11:37;19.17;;;9.75;;
75218;SDS011;63801;49.414;19.474;2023-07-20T00:13:39;16.15;;;9.13;;
75218;SDS011;63801;49.414;19.474;2023-07-20T00:15:39;14.80;;;8.68;;
75218;SDS011;63801;49.414;19.474;2023-07-20T00:17:40;18.02;;;8.48;;
75218;SDS011;63801;49.414;19.474;2023-07-20T00:19:40;14.80;;;8.85;;
75218;SDS011;63801;49.414;19.474;2023-07-20T00:21:40;14.48;;;8.55;;
75218;SDS011;63801;49.414;19.474;2023-07-20T00:23:42;14.27;;;8.30;;
75218;SDS011;63801;49.414;19.474;2023-07-20T00:25:43;16.40;;;7.65;;
75218;SDS011;63801;49.414;19.474;2023-07-20T00:27:43;14.07;;;7.80;;
75218;SDS011;63801;49.414;19.474;2023-07-20T00:29:43;13.48;;;8.23;;
75218;SDS011;63801;49.414;19.474;2023-07-20T00:31:44;15.25;;;8.32;;
75218;SDS011;63801;49.414;19.474;2023-07-20T00:33:44;17.42;;;8.50;;
75218;SDS011;63801;49.414;19.474;2023-07-20T00:35:45;14.13;;;7.63;;
75218;SDS011;63801;49.414;19.474;2023-07-20T00:37:45;13.45;;;8.07;;
75218;SDS011;63801;49.414;19.474;2023-07-20T00:39:45;13.38;;;8.43;;
75218;SDS011;63801;49.414;19.474;2023-07-20T00:41:46;14.73;;;7.93;;
75218;SDS011;63801;49.414;19.474;2023-07-20T01:33:13;18.35;;;9.43;;
75218;SDS011;63801;49.414;19.474;2023-07-20T01:35:16;16.65;;;9.98;;
75218;SDS011;63801;49.414;19.474;2023-07-20T01:37:19;16.38;;;9.77;;
75218;SDS011;63801;49.414;19.474;2023-07-20T01:39:25;16.98;;;10.02;;
75218;SDS011;63801;49.414;19.474;2023-07-20T01:41:26;20.25;;;9.90;;
75218;SDS011;63801;49.414;19.474;2023-07-20T01:43:26;15.48;;;10.02;;
75218;SDS011;63801;49.414;19.474;2023-07-20T01:45:27;17.42;;;9.93;;
75218;SDS011;63801;49.414;19.474;2023-07-20T01:47:27;18.60;;;10.68;;
75218;SDS011;63801;49.414;19.474;2023-07-20T01:49:27;18.35;;;9.63;;
75218;SDS011;63801;49.414;19.474;2023-07-20T01:51:28;15.18;;;8.45;;
75218;SDS011;63801;49.414;19.474;2023-07-20T01:53:28;22.35;;;9.07;;
75218;SDS011;63801;49.414;19.474;2023-07-20T01:55:29;12.65;;;8.75;;
75218;SDS011;63801;49.414;19.474;2023-07-20T01:57:29;17.25;;;9.38;;
75218;SDS011;63801;49.414;19.474;2023-07-20T01:59:29;15.95;;;8.43;;
75218;SDS011;63801;49.414;19.474;2023-07-20T02:01:30;14.55;;;8.98;;
75218;SDS011;63801;49.414;19.474;2023-07-20T02:03:30;18.50;;;9.20;;
75218;SDS011;63801;49.414;19.474;2023-07-20T02:05:30;17.92;;;9.20;;
75218;SDS011;63801;49.414;19.474;2023-07-20T02:07:31;16.20;;;8.82;;
75218;SDS011;63801;49.414;19.474;2023-07-20T02:09:31;17.08;;;9.35;;
75218;SDS011;63801;49.414;19.474;2023-07-20T02:11:31;14.70;;;8.10;;
75218;SDS011;63801;49.414;19.474;2023-07-20T02:13:32;14.38;;;7.40;;
75218;SDS011;63801;49.414;19.474;2023-07-20T02:15:32;15.57;;;8.07;;
75218;SDS011;63801;49.414;19.474;2023-07-20T02:17:32;12.20;;;7.35;;
75218;SDS011;63801;49.414;19.474;2023-07-20T02:19:33;14.60;;;7.78;;
75218;SDS011;63801;49.414;19.474;2023-07-20T02:21:33;16.88;;;7.97;;
75218;SDS011;63801;49.414;19.474;2023-07-20T02:23:34;12.48;;;7.03;;
75218;SDS011;63801;49.414;19.474;2023-07-20T02:25:34;13.07;;;7.00;;
75218;SDS011;63801;49.414;19.474;2023-07-20T02:27:34;12.25;;;6.43;;
75218;SDS011;63801;49.414;19.474;2023-07-20T02:29:35;14.00;;;6.95;;
75218;SDS011;63801;49.414;19.474;2023-07-20T02:31:36;13.60;;;7.60;;
75218;SDS011;63801;49.414;19.474;2023-07-20T02:33:37;14.02;;;7.28;;
75218;SDS011;63801;49.414;19.474;2023-07-20T02:35:37;11.30;;;6.93;;
75218;SDS011;63801;49.414;19.474;2023-07-20T02:37:38;11.75;;;7.40;;
75218;SDS011;63801;49.414;19.474;2023-07-20T02:39:38;12.23;;;7.22;;
75218;SDS011;63801;49.414;19.474;2023-07-20T02:41:39;16.55;;;7.07;;
75218;SDS011;63801;49.414;19.474;2023-07-20T02:43:39;10.95;;;7.07;;
75218;SDS011;63801;49.414;19.474;2023-07-20T02:45:40;10.48;;;6.32;;
75218;SDS011;63801;49.414;19.474;2023-07-20T02:47:41;12.55;;;6.97;;
75218;SDS011;63801;49.414;19.474;2023-07-20T02:49:42;12.80;;;6.90;;
75218;SDS011;63801;49.414;19.474;2023-07-20T02:51:42;11.60;;;7.15;;
75218;SDS011;63801;49.414;19.474;2023-07-20T02:53:43;12.95;;;7.45;;
75218;SDS011;63801;49.414;19.474;2023-07-20T02:55:43;17.67;;;7.40;;
75218;SDS011;63801;49.414;19.474;2023-07-20T02:57:44;16.48;;;7.68;;
75218;SDS011;63801;49.414;19.474;2023-07-20T02:59:44;18.33;;;8.57;;
75218;SDS011;63801;49.414;19.474;2023-07-20T03:01:44;17.35;;;7.28;;
75218;SDS011;63801;49.414;19.474;2023-07-20T03:03:44;15.77;;;8.00;;
75218;SDS011;63801;49.414;19.474;2023-07-20T03:05:48;17.27;;;8.23;;
75218;SDS011;63801;49.414;19.474;2023-07-20T03:07:55;15.63;;;8.70;;
75218;SDS011;63801;49.414;19.474;2023-07-20T03:09:55;12.40;;;7.88;;
75218;SDS011;63801;49.414;19.474;2023-07-20T03:11:56;12.95;;;7.63;;
75218;SDS011;63801;49.414;19.474;2023-07-20T03:13:56;13.70;;;7.22;;
75218;SDS011;63801;49.414;19.474;2023-07-20T03:15:56;12.75;;;6.88;;
75218;SDS011;63801;49.414;19.474;2023-07-20T03:17:57;13.18;;;6.55;;
75218;SDS011;63801;49.414;19.474;2023-07-20T03:19:58;13.80;;;5.88;;
75218;SDS011;63801;49.414;19.474;2023-07-20T03:21:59;15.27;;;7.13;;
75218;SDS011;63801;49.414;19.474;2023-07-20T03:24:00;14.48;;;7.15;;
75218;SDS011;63801;49.414;19.474;2023-07-20T03:26:00;18.98;;;8.18;;
75218;SDS011;63801;49.414;19.474;2023-07-20T03:28:01;15.55;;;7.53;;
75218;SDS011;63801;49.414;19.474;2023-07-20T03:30:01;16.63;;;9.15;;
75218;SDS011;63801;49.414;19.474;2023-07-20T03:32:02;18.00;;;8.65;;
75218;SDS011;63801;49.414;19.474;2023-07-20T03:34:02;17.65;;;8.25;;
75218;SDS011;63801;49.414;19.474;2023-07-20T03:36:03;21.77;;;8.88;;
75218;SDS011;63801;49.414;19.474;2023-07-20T03:38:03;18.23;;;8.05;;
75218;SDS011;63801;49.414;19.474;2023-07-20T03:40:04;17.40;;;8.80;;
75218;SDS011;63801;49.414;19.474;2023-07-20T03:42:07;16.10;;;8.65;;
75218;SDS011;63801;49.414;19.474;2023-07-20T03:44:07;20.15;;;7.82;;
75218;SDS011;63801;49.414;19.474;2023-07-20T03:46:08;18.13;;;7.70;;
75218;SDS011;63801;49.414;19.474;2023-07-20T03:48:08;17.60;;;7.45;;
75218;SDS011;63801;49.414;19.474;2023-07-20T03:50:09;13.55;;;7.20;;
75218;SDS011;63801;49.414;19.474;2023-07-20T03:52:09;12.38;;;6.95;;
75218;SDS011;63801;49.414;19.474;2023-07-20T03:54:10;13.85;;;7.43;;
75218;SDS011;63801;49.414;19.474;2023-07-20T03:56:10;12.18;;;7.20;;
75218;SDS011;63801;49.414;19.474;2023-07-20T03:58:10;11.90;;;6.65;;
75218;SDS011;63801;49.414;19.474;2023-07-20T04:00:11;12.32;;;6.30;;
75218;SDS011;63801;49.414;19.474;2023-07-20T04:02:12;9.93;;;5.65;;
75218;SDS011;63801;49.414;19.474;2023-07-20T04:04:13;12.85;;;6.30;;
75218;SDS011;63801;49.414;19.474;2023-07-20T04:06:15;12.10;;;6.07;;
75218;SDS011;63801;49.414;19.474;2023-07-20T04:08:17;10.65;;;6.32;;
75218;SDS011;63801;49.414;19.474;2023-07-20T04:10:18;9.60;;;6.30;;
75218;SDS011;63801;49.414;19.474;2023-07-20T04:12:18;11.70;;;5.57;;
75218;SDS011;63801;49.414;19.474;2023-07-20T04:14:19;9.65;;;4.90;;
75218;SDS011;63801;49.414;19.474;2023-07-20T04:16:19;10.35;;;5.25;;
75218;SDS011;63801;49.414;19.474;2023-07-20T04:18:20;10.23;;;5.55;;
75218;SDS011;63801;49.414;19.474;2023-07-20T04:20:20;9.25;;;4.93;;
75218;SDS011;63801;49.414;19.474;2023-07-20T04:22:21;6.78;;;3.72;;
75218;SDS011;63801;49.414;19.474;2023-07-20T04:24:21;8.93;;;3.88;;
75218;SDS011;63801;49.414;19.474;2023-07-20T04:26:22;6.50;;;3.67;;
75218;SDS011;63801;49.414;19.474;2023-07-20T04:28:22;13.80;;;4.20;;
75218;SDS011;63801;49.414;19.474;2023-07-20T04:30:22;6.82;;;3.35;;
75218;SDS011;63801;49.414;19.474;2023-07-20T04:32:23;6.13;;;3.40;;
75218;SDS011;63801;49.414;19.474;2023-07-20T04:34:23;7.30;;;3.50;;
75218;SDS011;63801;49.414;19.474;2023-07-20T04:36:23;8.80;;;3.90;;
75218;SDS011;63801;49.414;19.474;2023-07-20T04:38:24;7.70;;;3.90;;
75218;SDS011;63801;49.414;19.474;2023-07-20T04:40:24;7.40;;;3.92;;
75218;SDS011;63801;49.414;19.474;2023-07-20T04:42:24;8.45;;;4.28;;
75218;SDS011;63801;49.414;19.474;2023-07-20T04:44:25;7.32;;;3.33;;
75218;SDS011;63801;49.414;19.474;2023-07-20T04:46:25;8.40;;;3.75;;
75218;SDS011;63801;49.414;19.474;2023-07-20T04:48:25;7.40;;;3.40;;
75218;SDS011;63801;49.414;19.474;2023-07-20T04:50:26;9.55;;;3.72;;
75218;SDS011;63801;49.414;19.474;2023-07-20T04:52:26;13.65;;;3.50;;
75218;SDS011;63801;49.414;19.474;2023-07-20T04:54:26;7.18;;;3.63;;
75218;SDS011;63801;49.414;19.474;2023-07-20T04:56:27;5.22;;;3.08;;
75218;SDS011;63801;49.414;19.474;2023-07-20T04:58:27;9.82;;;3.78;;
75218;SDS011;63801;49.414;19.474;2023-07-20T05:00:27;7.90;;;3.60;;
75218;SDS011;63801;49.414;19.474;2023-07-20T05:02:28;5.80;;;3.55;;
75218;SDS011;63801;49.414;19.474;2023-07-20T05:04:28;6.57;;;3.28;;
75218;SDS011;63801;49.414;19.474;2023-07-20T05:06:28;7.60;;;3.67;;
75218;SDS011;63801;49.414;19.474;2023-07-20T05:08:29;5.85;;;3.25;;
75218;SDS011;63801;49.414;19.474;2023-07-20T05:10:29;7.50;;;3.38;;
75218;SDS011;63801;49.414;19.474;2023-07-20T05:12:29;5.53;;;3.35;;
75218;SDS011;63801;49.414;19.474;2023-07-20T05:14:30;8.43;;;3.95;;
75218;SDS011;63801;49.414;19.474;2023-07-20T05:16:30;8.02;;;3.88;;
75218;SDS011;63801;49.414;19.474;2023-07-20T05:18:30;8.40;;;3.33;;
75218;SDS011;63801;49.414;19.474;2023-07-20T05:20:31;6.22;;;3.78;;
75218;SDS011;63801;49.414;19.474;2023-07-20T05:22:33;9.20;;;3.30;;
75218;SDS011;63801;49.414;19.474;2023-07-20T05:24:33;9.07;;;4.20;;
75218;SDS011;63801;49.414;19.474;2023-07-20T05:26:33;7.95;;;4.55;;
75218;SDS011;63801;49.414;19.474;2023-07-20T05:28:34;8.55;;;4.20;;
75218;SDS011;63801;49.414;19.474;2023-07-20T05:30:34;7.45;;;3.72;;
75218;SDS011;63801;49.414;19.474;2023-07-20T05:32:35;7.35;;;3.20;;
75218;SDS011;63801;49.414;19.474;2023-07-20T05:34:35;8.02;;;3.38;;
75218;SDS011;63801;49.414;19.474;2023-07-20T05:36:36;6.72;;;3.20;;
75218;SDS011;63801;49.414;19.474;2023-07-20T05:38:37;5.80;;;3.28;;
75218;SDS011;63801;49.414;19.474;2023-07-20T05:40:37;9.80;;;3.20;;
75218;SDS011;63801;49.414;19.474;2023-07-20T05:42:39;9.25;;;3.10;;
75218;SDS011;63801;49.414;19.474;2023-07-20T05:44:40;5.47;;;2.80;;
75218;SDS011;63801;49.414;19.474;2023-07-20T05:46:41;7.03;;;2.97;;
75218;SDS011;63801;49.414;19.474;2023-07-20T05:48:42;6.30;;;2.78;;
75218;SDS011;63801;49.414;19.474;2023-07-20T05:50:42;5.13;;;2.83;;
75218;SDS011;63801;49.414;19.474;2023-07-20T05:52:46;5.75;;;2.42;;
75218;SDS011;63801;49.414;19.474;2023-07-20T05:54:46;7.78;;;2.75;;
75218;SDS011;63801;49.414;19.474;2023-07-20T05:56:46;4.95;;;2.55;;
75218;SDS011;63801;49.414;19.474;2023-07-20T05:58:47;5.28;;;2.30;;
75218;SDS011;63801;49.414;19.474;2023-07-20T06:00:48;4.40;;;2.47;;
75218;SDS011;63801;49.414;19.474;2023-07-20T06:02:49;5.40;;;2.58;;
75218;SDS011;63801;49.414;19.474;2023-07-20T06:04:49;4.20;;;2.60;;
75218;SDS011;63801;49.414;19.474;2023-07-20T06:06:49;5.38;;;3.10;;
75218;SDS011;63801;49.414;19.474;2023-07-20T06:08:50;5.15;;;2.75;;
75218;SDS011;63801;49.414;19.474;2023-07-20T06:10:50;6.82;;;2.67;;
75218;SDS011;63801;49.414;19.474;2023-07-20T06:12:51;4.35;;;2.75;;
75218;SDS011;63801;49.414;19.474;2023-07-20T06:14:52;8.50;;;2.63;;
75218;SDS011;63801;49.414;19.474;2023-07-20T06:16:52;5.90;;;2.58;;
75218;SDS011;63801;49.414;19.474;2023-07-20T06:18:53;6.72;;;2.60;;
75218;SDS011;63801;49.414;19.474;2023-07-20T06:20:57;5.05;;;2.55;;
75218;SDS011;63801;49.414;19.474;2023-07-20T06:22:57;6.65;;;3.35;;
75218;SDS011;63801;49.414;19.474;2023-07-20T06:24:57;4.35;;;2.97;;
75218;SDS011;63801;49.414;19.474;2023-07-20T06:26:58;4.97;;;2.65;;
75218;SDS011;63801;49.414;19.474;2023-07-20T06:28:58;6.53;;;2.90;;
75218;SDS011;63801;49.414;19.474;2023-07-20T06:31:02;9.35;;;3.00;;
75218;SDS011;63801;49.414;19.474;2023-07-20T06:33:03;7.03;;;3.10;;
75218;SDS011;63801;49.414;19.474;2023-07-20T06:35:03;4.97;;;2.67;;
75218;SDS011;63801;49.414;19.474;2023-07-20T06:37:04;6.32;;;2.88;;
75218;SDS011;63801;49.414;19.474;2023-07-20T06:39:04;6.35;;;2.83;;
75218;SDS011;63801;49.414;19.474;2023-07-20T06:41:05;5.50;;;2.70;;
75218;SDS011;63801;49.414;19.474;2023-07-20T06:43:05;6.15;;;3.25;;
75218;SDS011;63801;49.414;19.474;2023-07-20T06:45:06;6.95;;;3.03;;
75218;SDS011;63801;49.414;19.474;2023-07-20T06:47:06;6.22;;;3.05;;
75218;SDS011;63801;49.414;19.474;2023-07-20T06:49:08;9.13;;;2.95;;
75218;SDS011;63801;49.414;19.474;2023-07-20T06:51:08;8.52;;;3.05;;
75218;SDS011;63801;49.414;19.474;2023-07-20T06:53:08;6.70;;;3.28;;
75218;SDS011;63801;49.414;19.474;2023-07-20T06:55:09;6.15;;;3.00;;
75218;SDS011;63801;49.414;19.474;2023-07-20T06:57:12;7.45;;;3.15;;
75218;SDS011;63801;49.414;19.474;2023-07-20T06:59:13;4.70;;;2.97;;
75218;SDS011;63801;49.414;19.474;2023-07-20T07:01:13;3.72;;;2.47;;
75218;SDS011;63801;49.414;19.474;2023-07-20T07:03:14;4.45;;;2.65;;
75218;SDS011;63801;49.414;19.474;2023-07-20T07:05:15;5.05;;;2.90;;
75218;SDS011;63801;49.414;19.474;2023-07-20T07:07:15;6.28;;;3.15;;
75218;SDS011;63801;49.414;19.474;2023-07-20T07:09:16;7.10;;;3.17;;
75218;SDS011;63801;49.414;19.474;2023-07-20T07:11:16;4.95;;;2.88;;
75218;SDS011;63801;49.414;19.474;2023-07-20T07:13:16;7.28;;;3.28;;
75218;SDS011;63801;49.414;19.474;2023-07-20T07:15:17;7.03;;;3.15;;
75218;SDS011;63801;49.414;19.474;2023-07-20T07:17:17;7.18;;;3.22;;
75218;SDS011;63801;49.414;19.474;2023-07-20T07:19:17;5.47;;;2.90;;
75218;SDS011;63801;49.414;19.474;2023-07-20T07:21:18;5.38;;;2.90;;
75218;SDS011;63801;49.414;19.474;2023-07-20T07:23:18;6.50;;;3.15;;
75218;SDS011;63801;49.414;19.474;2023-07-20T07:25:19;5.00;;;2.63;;
75218;SDS011;63801;49.414;19.474;2023-07-20T07:27:19;7.20;;;2.72;;
75218;SDS011;63801;49.414;19.474;2023-07-20T07:29:20;4.10;;;2.63;;
75218;SDS011;63801;49.414;19.474;2023-07-20T07:31:20;4.78;;;3.05;;
75218;SDS011;63801;49.414;19.474;2023-07-20T07:33:20;5.78;;;2.88;;
75218;SDS011;63801;49.414;19.474;2023-07-20T07:35:21;7.35;;;3.20;;
75218;SDS011;63801;49.414;19.474;2023-07-20T07:37:21;8.68;;;3.30;;
75218;SDS011;63801;49.414;19.474;2023-07-20T07:39:22;8.98;;;3.58;;
75218;SDS011;63801;49.414;19.474;2023-07-20T07:43:24;6.67;;;3.07;;
75218;SDS011;63801;49.414;19.474;2023-07-20T07:45:25;7.38;;;3.15;;
75218;SDS011;63801;49.414;19.474;2023-07-20T07:47:25;6.38;;;2.88;;
75218;SDS011;63801;49.414;19.474;2023-07-20T07:49:25;11.48;;;5.50;;
75218;SDS011;63801;49.414;19.474;2023-07-20T07:51:26;9.35;;;4.32;;
75218;SDS011;63801;49.414;19.474;2023-07-20T07:53:27;5.40;;;2.60;;
75218;SDS011;63801;49.414;19.474;2023-07-20T07:55:28;5.20;;;2.60;;
75218;SDS011;63801;49.414;19.474;2023-07-20T07:57:28;4.30;;;2.30;;
75218;SDS011;63801;49.414;19.474;2023-07-20T07:59:28;4.30;;;2.42;;
75218;SDS011;63801;49.414;19.474;2023-07-20T08:01:31;10.93;;;2.50;;
75218;SDS011;63801;49.414;19.474;2023-07-20T08:03:31;8.43;;;2.35;;
75218;SDS011;63801;49.414;19.474;2023-07-20T08:07:41;5.00;;;2.20;;
75218;SDS011;63801;49.414;19.474;2023-07-20T08:09:42;3.85;;;2.15;;
75218;SDS011;63801;49.414;19.474;2023-07-20T08:11:42;4.53;;;2.15;;
75218;SDS011;63801;49.414;19.474;2023-07-20T08:13:43;5.18;;;2.38;;
75218;SDS011;63801;49.414;19.474;2023-07-20T08:15:45;4.55;;;2.10;;
75218;SDS011;63801;49.414;19.474;2023-07-20T08:17:53;4.30;;;2.15;;
75218;SDS011;63801;49.414;19.474;2023-07-20T08:19:54;4.28;;;2.00;;
75218;SDS011;63801;49.414;19.474;2023-07-20T08:21:55;5.85;;;2.03;;
75218;SDS011;63801;49.414;19.474;2023-07-20T08:23:55;3.70;;;1.92;;
75218;SDS011;63801;49.414;19.474;2023-07-20T08:25:56;3.38;;;1.98;;
75218;SDS011;63801;49.414;19.474;2023-07-20T08:27:56;4.22;;;2.15;;
75218;SDS011;63801;49.414;19.474;2023-07-20T08:29:56;5.22;;;2.20;;
75218;SDS011;63801;49.414;19.474;2023-07-20T08:31:57;6.63;;;2.38;;
75218;SDS011;63801;49.414;19.474;2023-07-20T08:33:57;4.22;;;2.30;;
75218;SDS011;63801;49.414;19.474;2023-07-20T08:35:57;3.90;;;2.20;;
75218;SDS011;63801;49.414;19.474;2023-07-20T08:37:58;3.13;;;1.98;;
75218;SDS011;63801;49.414;19.474;2023-07-20T08:39:58;4.95;;;2.28;;
75218;SDS011;63801;49.414;19.474;2023-07-20T08:41:59;6.53;;;2.28;;
75218;SDS011;63801;49.414;19.474;2023-07-20T08:44:04;7.53;;;2.55;;
75218;SDS011;63801;49.414;19.474;2023-07-20T08:46:06;4.15;;;2.53;;
75218;SDS011;63801;49.414;19.474;2023-07-20T08:48:08;3.17;;;1.98;;
75218;SDS011;63801;49.414;19.474;2023-07-20T08:50:09;4.05;;;2.20;;
75218;SDS011;63801;49.414;19.474;2023-07-20T08:52:12;3.55;;;2.03;;
75218;SDS011;63801;49.414;19.474;2023-07-20T08:54:13;5.55;;;2.33;;
75218;SDS011;63801;49.414;19.474;2023-07-20T08:58:16;4.57;;;2.10;;
75218;SDS011;63801;49.414;19.474;2023-07-20T09:00:19;5.15;;;2.42;;
75218;SDS011;63801;49.414;19.474;2023-07-20T09:02:20;4.10;;;2.17;;
75218;SDS011;63801;49.414;19.474;2023-07-20T09:04:25;5.82;;;2.50;;
75218;SDS011;63801;49.414;19.474;2023-07-20T09:06:25;3.58;;;2.10;;
75218;SDS011;63801;49.414;19.474;2023-07-20T09:08:26;4.55;;;2.40;;
75218;SDS011;63801;49.414;19.474;2023-07-20T09:10:27;4.18;;;2.40;;
75218;SDS011;63801;49.414;19.474;2023-07-20T09:12:27;3.38;;;2.20;;
75218;SDS011;63801;49.414;19.474;2023-07-20T09:14:28;5.45;;;2.47;;
75218;SDS011;63801;49.414;19.474;2023-07-20T09:16:31;3.63;;;2.53;;
75218;SDS011;63801;49.414;19.474;2023-07-20T09:18:32;4.75;;;2.30;;
75218;SDS011;63801;49.414;19.474;2023-07-20T09:20:34;7.60;;;2.40;;
75218;SDS011;63801;49.414;19.474;2023-07-20T09:22:36;6.22;;;2.40;;
75218;SDS011;63801;49.414;19.474;2023-07-20T09:24:40;3.20;;;2.13;;
75218;SDS011;63801;49.414;19.474;2023-07-20T09:26:42;4.10;;;1.88;;
75218;SDS011;63801;49.414;19.474;2023-07-20T09:28:47;4.38;;;2.50;;
75218;SDS011;63801;49.414;19.474;2023-07-20T09:30:49;4.03;;;2.22;;
75218;SDS011;63801;49.414;19.474;2023-07-20T09:32:49;5.35;;;2.13;;
75218;SDS011;63801;49.414;19.474;2023-07-20T09:34:52;3.17;;;2.17;;
75218;SDS011;63801;49.414;19.474;2023-07-20T09:36:52;4.07;;;2.35;;
75218;SDS011;63801;49.414;19.474;2023-07-20T09:38:53;4.72;;;1.80;;
75218;SDS011;63801;49.414;19.474;2023-07-20T09:40:53;4.55;;;1.98;;
75218;SDS011;63801;49.414;19.474;2023-07-20T09:42:54;6.95;;;2.42;;
75218;SDS011;63801;49.414;19.474;2023-07-20T09:45:02;5.70;;;2.22;;
75218;SDS011;63801;49.414;19.474;2023-07-20T09:47:03;3.05;;;1.90;;
75218;SDS011;63801;49.414;19.474;2023-07-20T09:49:04;6.53;;;2.10;;
75218;SDS011;63801;49.414;19.474;2023-07-20T09:51:08;2.90;;;1.85;;
75218;SDS011;63801;49.414;19.474;2023-07-20T09:53:12;4.50;;;2.10;;
75218;SDS011;63801;49.414;19.474;2023-07-20T09:55:14;3.30;;;1.70;;
75218;SDS011;63801;49.414;19.474;2023-07-20T09:57:14;3.95;;;1.90;;
75218;SDS011;63801;49.414;19.474;2023-07-20T09:59:15;3.08;;;1.80;;
75218;SDS011;63801;49.414;19.474;2023-07-20T10:01:18;5.28;;;1.98;;
75218;SDS011;63801;49.414;19.474;2023-07-20T10:03:22;2.95;;;1.73;;
75218;SDS011;63801;49.414;19.474;2023-07-20T10:05:28;2.80;;;1.95;;
75218;SDS011;63801;49.414;19.474;2023-07-20T10:07:33;5.25;;;1.75;;
75218;SDS011;63801;49.414;19.474;2023-07-20T10:09:36;5.95;;;1.88;;
75218;SDS011;63801;49.414;19.474;2023-07-20T10:11:40;4.22;;;2.10;;
75218;SDS011;63801;49.414;19.474;2023-07-20T10:13:44;4.45;;;1.70;;
75218;SDS011;63801;49.414;19.474;2023-07-20T10:15:47;3.50;;;2.00;;
75218;SDS011;63801;49.414;19.474;2023-07-20T10:22:12;2.63;;;1.70;;
75218;SDS011;63801;49.414;19.474;2023-07-20T10:24:15;7.22;;;2.05;;
75218;SDS011;63801;49.414;19.474;2023-07-20T10:28:17;3.73;;;1.90;;
75218;SDS011;63801;49.414;19.474;2023-07-20T10:30:18;2.05;;;1.60;;
75218;SDS011;63801;49.414;19.474;2023-07-20T10:32:20;3.63;;;1.50;;
75218;SDS011;63801;49.414;19.474;2023-07-20T10:34:21;3.88;;;1.70;;
75218;SDS011;63801;49.414;19.474;2023-07-20T10:36:25;3.03;;;1.65;;
75218;SDS011;63801;49.414;19.474;2023-07-20T10:40:54;2.83;;;1.65;;
75218;SDS011;63801;49.414;19.474;2023-07-20T10:42:56;3.45;;;2.00;;
75218;SDS011;63801;49.414;19.474;2023-07-20T10:45:07;3.35;;;1.67;;
75218;SDS011;63801;49.414;19.474;2023-07-20T10:47:08;2.42;;;1.48;;
75218;SDS011;63801;49.414;19.474;2023-07-20T10:49:10;3.92;;;2.00;;
75218;SDS011;63801;49.414;19.474;2023-07-20T10:51:12;8.40;;;2.30;;
75218;SDS011;63801;49.414;19.474;2023-07-20T10:53:17;4.60;;;2.40;;
75218;SDS011;63801;49.414;19.474;2023-07-20T10:57:28;4.85;;;2.20;;
75218;SDS011;63801;49.414;19.474;2023-07-20T11:01:35;4.70;;;1.80;;
75218;SDS011;63801;49.414;19.474;2023-07-20T11:03:37;2.90;;;1.52;;
75218;SDS011;63801;49.414;19.474;2023-07-20T11:05:41;3.72;;;1.80;;
75218;SDS011;63801;49.414;19.474;2023-07-20T11:07:42;3.40;;;1.60;;
75218;SDS011;63801;49.414;19.474;2023-07-20T11:09:42;2.13;;;1.38;;
75218;SDS011;63801;49.414;19.474;2023-07-20T11:11:44;2.78;;;1.70;;
75218;SDS011;63801;49.414;19.474;2023-07-20T11:13:59;2.95;;;1.40;;
75218;SDS011;63801;49.414;19.474;2023-07-20T11:16:02;3.35;;;1.60;;
75218;SDS011;63801;49.414;19.474;2023-07-20T11:18:11;8.30;;;2.00;;
75218;SDS011;63801;49.414;19.474;2023-07-20T11:20:12;5.05;;;1.92;;
75218;SDS011;63801;49.414;19.474;2023-07-20T11:22:13;3.00;;;1.90;;
75218;SDS011;63801;49.414;19.474;2023-07-20T11:24:16;3.80;;;1.70;;
75218;SDS011;63801;49.414;19.474;2023-07-20T11:26:17;3.13;;;1.75;;
75218;SDS011;63801;49.414;19.474;2023-07-20T11:28:19;3.78;;;1.60;;
75218;SDS011;63801;49.414;19.474;2023-07-20T11:30:19;4.40;;;1.75;;
75218;SDS011;63801;49.414;19.474;2023-07-20T11:32:20;3.38;;;1.70;;
75218;SDS011;63801;49.414;19.474;2023-07-20T11:34:22;27.85;;;4.28;;
75218;SDS011;63801;49.414;19.474;2023-07-20T11:36:22;3.58;;;1.85;;
75218;SDS011;63801;49.414;19.474;2023-07-20T11:38:23;3.28;;;1.88;;
75218;SDS011;63801;49.414;19.474;2023-07-20T11:40:24;5.37;;;1.90;;
75218;SDS011;63801;49.414;19.474;2023-07-20T11:42:25;4.20;;;1.60;;
75218;SDS011;63801;49.414;19.474;2023-07-20T11:44:28;2.22;;;1.48;;
75218;SDS011;63801;49.414;19.474;2023-07-20T11:46:29;4.55;;;1.70;;
75218;SDS011;63801;49.414;19.474;2023-07-20T11:48:29;3.03;;;1.60;;
75218;SDS011;63801;49.414;19.474;2023-07-20T11:50:30;4.35;;;1.73;;
75218;SDS011;63801;49.414;19.474;2023-07-20T11:52:30;3.15;;;1.42;;
75218;SDS011;63801;49.414;19.474;2023-07-20T11:54:31;2.83;;;1.70;;
75218;SDS011;63801;49.414;19.474;2023-07-20T11:56:32;4.47;;;2.03;;
75218;SDS011;63801;49.414;19.474;2023-07-20T11:58:33;3.80;;;1.75;;
75218;SDS011;63801;49.414;19.474;2023-07-20T12:00:33;4.13;;;1.88;;
75218;SDS011;63801;49.414;19.474;2023-07-20T12:02:35;3.20;;;1.63;;
75218;SDS011;63801;49.414;19.474;2023-07-20T12:04:35;3.00;;;1.55;;
75218;SDS011;63801;49.414;19.474;2023-07-20T12:06:35;3.28;;;1.60;;
75218;SDS011;63801;49.414;19.474;2023-07-20T12:08:39;5.95;;;1.90;;
75218;SDS011;63801;49.414;19.474;2023-07-20T12:10:41;3.28;;;1.60;;
75218;SDS011;63801;49.414;19.474;2023-07-20T12:12:45;3.88;;;2.00;;
75218;SDS011;63801;49.414;19.474;2023-07-20T12:14:45;2.92;;;1.90;;
75218;SDS011;63801;49.414;19.474;2023-07-20T12:16:51;3.65;;;1.75;;
75218;SDS011;63801;49.414;19.474;2023-07-20T12:18:59;4.35;;;1.80;;
75218;SDS011;63801;49.414;19.474;2023-07-20T12:21:00;3.30;;;1.73;;
75218;SDS011;63801;49.414;19.474;2023-07-20T12:23:07;2.55;;;1.60;;
75218;SDS011;63801;49.414;19.474;2023-07-20T12:25:09;3.08;;;1.70;;
75218;SDS011;63801;49.414;19.474;2023-07-20T12:27:12;4.38;;;1.90;;
75218;SDS011;63801;49.414;19.474;2023-07-20T12:29:13;2.92;;;1.60;;
75218;SDS011;63801;49.414;19.474;2023-07-20T12:31:14;3.20;;;1.80;;
75218;SDS011;63801;49.414;19.474;2023-07-20T12:33:14;5.55;;;2.00;;
75218;SDS011;63801;49.414;19.474;2023-07-20T12:35:15;5.95;;;2.00;;
75218;SDS011;63801;49.414;19.474;2023-07-20T12:37:17;3.15;;;2.00;;
75218;SDS011;63801;49.414;19.474;2023-07-20T12:39:18;10.63;;;2.90;;
75218;SDS011;63801;49.414;19.474;2023-07-20T12:41:18;7.07;;;2.15;;
75218;SDS011;63801;49.414;19.474;2023-07-20T12:43:19;5.80;;;2.20;;
75218;SDS011;63801;49.414;19.474;2023-07-20T12:45:19;7.32;;;2.50;;
75218;SDS011;63801;49.414;19.474;2023-07-20T12:47:20;3.85;;;2.53;;
75218;SDS011;63801;49.414;19.474;2023-07-20T12:49:21;4.85;;;2.65;;
75218;SDS011;63801;49.414;19.474;2023-07-20T12:51:21;6.10;;;2.38;;
75218;SDS011;63801;49.414;19.474;2023-07-20T12:53:21;4.53;;;2.25;;
75218;SDS011;63801;49.414;19.474;2023-07-20T12:55:21;6.90;;;2.83;;
75218;SDS011;63801;49.414;19.474;2023-07-20T12:57:22;4.80;;;2.33;;
75218;SDS011;63801;49.414;19.474;2023-07-20T12:59:22;3.97;;;2.20;;
75218;SDS011;63801;49.414;19.474;2023-07-20T13:01:23;4.18;;;2.42;;
75218;SDS011;63801;49.414;19.474;2023-07-20T13:03:24;4.18;;;2.28;;
75218;SDS011;63801;49.414;19.474;2023-07-20T13:05:24;5.68;;;2.03;;